• Join FlightAware (Why Join?)
  • Login
  • US Flag 
03:31AM EDT


 

Airport Tracker/Info


-or-


 

Live Flight TrackerFlight Track Log ✈ UAL252 ✈ 21-Jun-2013 ✈ KLAX - KBWI

Flight Track Log - Related Links

Times and Time Zones

All times are in EDT time to prevent confusion due to time zone crossing. See the UAL252 flight status page for this flight to view local times or setup timezone preferences in your user account.

Time Position Orientation Groundspeed Altitude Reporting Facility
EDT Latitude Longitude Course Direction KTS MPH feet Rate Location/Type
11:37AM 33.9333 -118.4500 56° Northeast 191 220 1,800  Level Southern California TRACON
11:38AM 33.9167 -118.5333 256° West 251 289 3,900 2,340 Climbing Southern California TRACON
11:39AM 33.8833 -118.6000 239° Southwest 253 291 6,300 1,920 Climbing Southern California TRACON
11:41AM 34.1833 -117.9667 59° Northeast  Level FlightAware Approximate
11:41AM 33.8147 -118.5594 154° Southeast 294 338 8,500  Level Los Angeles Center
11:42AM 34.2544 -117.8534 68° East  Level FlightAware Approximate
11:42AM 33.8789 -118.4811 45° Northeast 310 357 10,600  Level Los Angeles Center
11:43AM 34.3216 -117.7279 56° Northeast  Level FlightAware Approximate
11:43AM 33.9297 -118.4361 36° Northeast 317 365 11,200  Level Los Angeles Center
11:44AM 34.0025 -118.3117 55° Northeast 370 426 13,100 1,680 Climbing Los Angeles Center
11:45AM 34.0800 -118.1747 56° Northeast 407 468 14,800 1,860 Climbing Los Angeles Center
11:46AM 34.1319 -118.0481 64° Northeast 426 490 17,000 2,160 Climbing Los Angeles Center
11:47AM 34.2011 -117.9222 56° Northeast 445 512 19,300 1,980 Climbing Los Angeles Center
11:48AM 34.2756 -117.7914 55° Northeast 468 539 21,200 2,040 Climbing Los Angeles Center
11:49AM 34.3531 -117.6564 55° Northeast 486 559 23,600 2,040 Climbing Los Angeles Center
11:50AM 34.4361 -117.5103 55° Northeast 498 573 25,500 1,440 Climbing Los Angeles Center
11:51AM 34.5167 -117.3683 55° Northeast 513 590 26,600 840 Climbing Los Angeles Center
11:52AM 34.5989 -117.2250 55° Northeast 520 598 27,300 840 Climbing Los Angeles Center
11:53AM 34.7136 -117.0669 49° Northeast 523 602 28,400 960 Climbing Los Angeles Center
11:54AM 34.8103 -116.9358 48° Northeast 524 603 29,300 780 Climbing Los Angeles Center
11:55AM 34.9056 -116.8047 48° Northeast 521 600 30,100 780 Climbing Los Angeles Center
11:56AM 35.0022 -116.6725 48° Northeast 523 602 31,000 960 Climbing Los Angeles Center
11:57AM 35.0983 -116.5408 48° Northeast 525 604 32,100 900 Climbing Los Angeles Center
11:58AM 35.2119 -116.3844 48° Northeast 517 595 32,900 840 Climbing Los Angeles Center
11:59AM 35.3072 -116.2531 48° Northeast 518 596 33,900 660 Climbing Los Angeles Center
12:00PM 35.3992 -116.1211 49° Northeast 514 592 34,300 480 Climbing Los Angeles Center
12:02PM 35.4947 -115.9883 49° Northeast 517 595 34,900 300 Climbing Los Angeles Center
12:03PM 35.6094 -115.8311 48° Northeast 514 592 35,000  Climbing Los Angeles Center
12:04PM 35.7036 -115.6986 49° Northeast 513 590 35,000  Level Los Angeles Center
12:05PM 35.7972 -115.5633 50° Northeast 518 596 35,000  Level Los Angeles Center
12:06PM 35.8917 -115.4283 49° Northeast 522 601 35,000  Level Los Angeles Center
12:07PM 35.9864 -115.2942 49° Northeast 523 602 35,000  Level Los Angeles Center
12:08PM 36.0736 -115.1075 60° Northeast 533 613 35,000  Level Los Angeles Center
12:09PM 36.1075 -114.9314 77° East 531 611 35,000  Level Los Angeles Center
12:10PM 36.1411 -114.7528 77° East 536 617 35,000  Level Los Angeles Center
12:11PM 36.1844 -114.5778 73° East 534 615 35,000  Level Los Angeles Center
12:12PM 36.2275 -114.4036 73° East 532 612 35,000  Level Los Angeles Center
12:13PM 36.2803 -114.1928 73° East 535 616 35,000  Level Los Angeles Center
12:14PM 36.3236 -114.0164 73° East 536 617 35,000  Level Los Angeles Center
12:15PM 36.3658 -113.8394 73° East 536 617 35,000  Level Los Angeles Center
12:16PM 36.4094 -113.6611 73° East 540 621 35,000  Level Los Angeles Center
12:17PM 36.4525 -113.4828 73° East 541 623 35,000  Level Los Angeles Center
12:18PM 36.4944 -113.3050 74° East 539 620 35,000  Level Los Angeles Center
12:19PM 36.5389 -113.1181 73° East 540 621 35,000  Level Los Angeles Center
12:20PM 36.5894 -112.9044 74° East 540 621 35,000  Level Los Angeles Center
12:21PM 36.6303 -112.7272 74° East 537 618 35,000  Level Los Angeles Center
12:22PM 36.6711 -112.5503 74° East 536 617 35,000  Level Los Angeles Center
12:23PM 36.7117 -112.3728 74° East 536 617 35,000  Level Los Angeles Center
12:24PM 36.7525 -112.1953 74° East 536 617 35,000  Level Los Angeles Center
12:25PM 36.8011 -111.9822 74° East 536 617 35,000  Level Los Angeles Center
12:26PM 36.8406 -111.8031 75° East 537 618 35,000  Level Los Angeles Center
12:27PM 36.8803 -111.6239 74° East 538 619 35,000  Level Los Angeles Center
12:28PM 36.9197 -111.4447 75° East 538 619 35,000  Level Los Angeles Center
12:29PM 36.9597 -111.2644 74° East 539 620 35,000  Level Los Angeles Center
12:30PM 37.0061 -111.0478 75° East 541 623 35,000  Level Los Angeles Center
12:32PM 37.0431 -110.8678 76° East 540 621 35,000  Level Denver Center
12:33PM 37.0819 -110.6864 75° East 542 624 35,000  Level Denver Center
12:34PM 37.1206 -110.5061 75° East 538 619 35,000  Level Denver Center
12:35PM 37.1578 -110.3247 76° East 540 621 35,000  Level Denver Center
12:36PM 37.1983 -110.1311 75° East 543 625 35,000  Level Denver Center
12:37PM 37.2397 -109.9283 76° East 538 619 35,000  Level Denver Center
12:38PM 37.2750 -109.7536 76° East 538 619 35,000  Level Denver Center
12:39PM 37.3161 -109.5497 76° East 537 618 35,000  Level Denver Center
12:40PM 37.3508 -109.3747 76° East 538 619 35,000  Level Denver Center
12:41PM 37.3911 -109.1739 76° East 532 612 35,000  Level Denver Center
12:42PM 37.4244 -109.0025 76° East 527 606 35,000  Level Denver Center
12:43PM 37.4636 -108.8031 76° East 524 603 35,000  Level Denver Center
12:44PM 37.4961 -108.6322 76° East 524 603 35,000  Level Denver Center
12:45PM 37.5339 -108.4356 76° East 519 597 35,000  Level Denver Center
12:46PM 37.5658 -108.2681 76° East 514 592 35,000  Level Denver Center
12:47PM 37.5967 -108.0997 77° East 513 590 35,000  Level Denver Center
12:48PM 37.6328 -107.9078 77° East 505 581 35,000  Level Denver Center
12:49PM 37.6631 -107.7442 77° East 501 577 35,000  Level Denver Center
12:50PM 37.7033 -107.5289 77° East 494 568 35,000  Level Denver Center
12:51PM 37.7367 -107.3422 77° East 489 563 35,000  Level Denver Center
12:52PM 37.7658 -107.1831 77° East 487 560 35,000  Level Denver Center
12:53PM 37.7939 -107.0231 77° East 486 559 35,000  Level Denver Center
12:55PM 37.8267 -106.8367 77° East 486 559 35,000  Level Denver Center
12:56PM 37.8539 -106.6792 78° East 483 556 35,000  Level Denver Center
12:57PM 37.8906 -106.4628 78° East 489 563 35,000  Level Denver Center
12:58PM 37.9281 -106.2472 77° East 492 566 35,000  Level Denver Center
12:59PM 37.9544 -106.0858 78° East 489 563 35,100  Climbing Denver Center
01:00PM 37.9867 -105.8958 78° East 492 566 35,000 -60 Descending Denver Center
01:01PM 38.0086 -105.7636 78° East 485 558 35,000  Level Denver Center
01:02PM 38.0428 -105.5542 78° East 475 547 35,000 -60 Level Denver Center
01:03PM 38.0692 -105.3936 78° East 482 555 34,900  Descending Denver Center
01:04PM 38.0994 -105.2069 78° East 484 557 35,000  Climbing Denver Center
01:05PM 38.1217 -105.0711 78° East 488 562 35,000  Level Denver Center
01:06PM 38.1553 -104.8553 79° East 487 560 35,000  Level Denver Center
01:08PM 38.1808 -104.6947 79° East 485 558 35,000 -60 Level Denver Center
01:09PM 38.2281 -104.3672 80° East 480 552 34,900  Descending Kansas City Center
01:10PM 38.2514 -104.2103 79° East 476 548 35,000  Climbing Kansas City Center
01:11PM 38.2789 -104.0253 79° East 476 548 35,000  Level Kansas City Center
01:12PM 38.3033 -103.8653 79° East 478 550 35,100  Climbing Kansas City Center
01:13PM 38.3303 -103.6797 79° East 478 550 35,000 -60 Descending Kansas City Center
01:14PM 38.3553 -103.5214 79° East 477 549 35,000  Level Kansas City Center
01:15PM 38.3772 -103.3619 80° East 478 550 35,000  Level Kansas City Center
01:17PM 38.4042 -103.1739 80° East 481 554 35,000  Level Kansas City Center
01:18PM 38.4264 -103.0139 80° East 480 552 35,000  Level Kansas City Center
01:19PM 38.4528 -102.8275 80° East 479 551 35,000  Level Kansas City Center
01:20PM 38.4750 -102.6689 80° East 477 549 35,000  Level Kansas City Center
01:21PM 38.5000 -102.4856 80° East 474 545 35,000  Level Kansas City Center
01:22PM 38.5214 -102.3281 80° East 472 543 35,000  Level Kansas City Center
01:23PM 38.5461 -102.1444 80° East 470 541 35,000  Level Kansas City Center
01:24PM 38.5669 -101.9883 80° East 468 539 35,000  Level Kansas City Center
01:25PM 38.5939 -101.8003 80° East 475 547 35,000  Level Kansas City Center
01:26PM 38.6136 -101.6428 81° East 473 544 35,000  Level Kansas City Center
01:27PM 38.6347 -101.4594 82° East 468 539 35,000  Level Kansas City Center
01:28PM 38.6561 -101.3003 80° East 469 540 35,000  Level Kansas City Center
01:29PM 38.6764 -101.1364 81° East 477 549 35,000  Level Kansas City Center
01:30PM 38.6983 -100.9511 81° East 473 544 35,000  Level Kansas City Center
01:31PM 38.7186 -100.7911 81° East 473 544 35,000  Level Kansas City Center
01:32PM 38.7403 -100.6078 81° East 468 539 35,000  Level Kansas City Center
01:33PM 38.7597 -100.4489 81° East 469 540 35,000  Level Kansas City Center
01:34PM 38.7806 -100.2619 82° East 471 542 35,000  Level Kansas City Center
01:35PM 38.7986 -100.1017 82° East 473 544 35,000  Level Kansas City Center
01:36PM 38.8200 -99.9147 82° East 473 544 35,000  Level Kansas City Center
01:37PM 38.8386 -99.7525 82° East 477 549 35,000  Level Kansas City Center
01:38PM 38.8581 -99.5633 82° East 479 551 35,000  Level Kansas City Center
01:39PM 38.8772 -99.3983 81° East 478 550 35,000  Level Kansas City Center
01:40PM 38.8947 -99.2294 82° East 477 549 35,000  Level Kansas City Center
01:41PM 38.9128 -99.0608 82° East 474 545 35,000  Level Kansas City Center
01:42PM 38.9311 -98.8931 82° East 472 543 35,000  Level Kansas City Center
01:43PM 38.9481 -98.7250 83° East 472 543 35,000  Level Kansas City Center
01:44PM 38.9653 -98.5542 83° East 478 550 35,000  Level Kansas City Center
01:45PM 38.9819 -98.3853 83° East 477 549 35,000  Level Kansas City Center
01:47PM 39.0019 -98.1844 83° East 471 542 35,000  Level Kansas City Center
01:48PM 39.0183 -98.0161 83° East 474 545 35,000  Level Kansas City Center
01:49PM 39.0353 -97.8408 83° East 471 542 35,000  Level Kansas City Center
01:50PM 39.0511 -97.6678 83° East 476 548 35,000  Level Kansas City Center
01:51PM 39.0658 -97.5039 83° East 481 554 35,000  Level Kansas City Center
01:52PM 39.0839 -97.3103 83° East 487 560 35,000  Level Kansas City Center
01:53PM 39.0983 -97.1467 83° East 483 556 35,000  Level Kansas City Center
01:54PM 39.1153 -96.9542 83° East 483 556 35,000  Level Kansas City Center
01:55PM 39.1300 -96.7886 83° East 486 559 35,000  Level Kansas City Center
01:56PM 39.1469 -96.5950 84° East 488 562 35,000  Level Kansas City Center
01:57PM 39.1589 -96.4264 85° East 491 565 35,000  Level Kansas City Center
01:58PM 39.1742 -96.2331 84° East 486 559 35,000  Level Kansas City Center
01:59PM 39.1875 -96.0675 84° East 485 558 35,000  Level Kansas City Center
02:00PM 39.2003 -95.9011 84° East 486 559 35,000  Level Kansas City Center
02:01PM 39.2161 -95.7078 84° East 484 557 35,000  Level Kansas City Center
02:02PM 39.2281 -95.5406 85° East 489 563 35,000  Level Kansas City Center
02:03PM 39.2431 -95.3400 84° East 487 560 35,000  Level Kansas City Center
02:04PM 39.2553 -95.1508 85° East 492 566 35,100  Climbing Kansas City Center
02:05PM 39.2667 -94.9989 84° East 484 557 35,000 -60 Descending Kansas City Center
02:06PM 39.2800 -94.8075 85° East 479 551 35,000  Level Kansas City Center
02:07PM 39.2931 -94.6406 84° East 484 557 35,000  Level Kansas City Center
02:09PM 39.3098 -94.4240 84° East  Level FlightAware Approximate
02:09PM 39.3294 -94.2828 84° East 480 552 35,000  Level Kansas City Center
02:10PM 39.3481 -94.0881 83° East 486 559 35,000  Level Kansas City Center
02:11PM 39.3636 -93.9244 83° East 480 552 35,000  Level Kansas City Center
02:12PM 39.3797 -93.7456 83° East 473 544 35,000  Level Kansas City Center
02:13PM 39.3958 -93.5803 83° East 470 541 35,000  Level Kansas City Center
02:14PM 39.4100 -93.4153 84° East 467 537 35,000  Level Kansas City Center
02:15PM 39.4253 -93.2536 83° East 462 532 35,000  Level Kansas City Center
02:17PM 39.4414 -93.0572 84° East 463 533 35,000  Level Kansas City Center
02:18PM 39.4544 -92.8922 84° East 465 535 35,000  Level Kansas City Center
02:19PM 39.4675 -92.7300 84° East 462 532 35,000  Level Kansas City Center
02:20PM 39.4803 -92.5694 84° East 458 527 35,000  Level Kansas City Center
02:21PM 39.4961 -92.3792 84° East 453 521 35,000  Level Kansas City Center
02:22PM 39.5044 -92.2203 86° East 450 518 35,000  Level Kansas City Center
02:23PM 39.4942 -92.0633 95° East 444 511 35,000  Level Kansas City Center
02:24PM 39.4853 -91.9072 94° East 443 510 35,000  Level Kansas City Center
02:25PM 39.4797 -91.7508 93° East 440 506 35,000  Level Kansas City Center
02:26PM 39.4722 -91.5783 93° East 439 505 35,000  Level Kansas City Center
02:27PM 39.4658 -91.4181 93° East 443 510 35,000  Level Kansas City Center
02:28PM 39.4603 -91.2564 92° East 448 516 35,100  Climbing Kansas City Center
02:29PM 39.4681 -91.0642 87° East 444 511 35,000 -60 Descending Kansas City Center
02:30PM 39.4831 -90.9050 83° East 444 511 35,000  Level Kansas City Center
02:31PM 39.4983 -90.7475 83° East 441 507 35,000  Level Kansas City Center
02:32PM 39.5119 -90.5894 84° East 441 507 35,000  Level Kansas City Center
02:33PM 39.5258 -90.4319 83° East 440 506 35,000  Level Kansas City Center
02:34PM 39.5400 -90.2750 83° East 439 505 35,000  Level Kansas City Center
02:35PM 39.5564 -90.0864 84° East 438 504 35,000  Level Kansas City Center
02:36PM 39.5692 -89.9300 84° East 437 503 35,000  Level Kansas City Center
02:37PM 39.5822 -89.7750 84° East 434 499 35,000  Level Kansas City Center
02:39PM 39.5952 -89.5628 85° East  Level FlightAware Approximate
02:39PM 39.6014 -89.5392 85° East 433 498 35,000  Level Indianapolis Center
02:40PM 39.6144 -89.3847 84° East 434 499 35,000  Level Indianapolis Center
02:41PM 39.6269 -89.1997 85° East 431 496 35,000  Level Indianapolis Center
02:42PM 39.6400 -89.0453 84° East 431 496 35,000  Level Indianapolis Center
02:43PM 39.6531 -88.8922 84° East 429 494 35,000  Level Indianapolis Center
02:45PM 39.6686 -88.6368 85° East  Level FlightAware Approximate
02:45PM 39.6808 -88.5061 85° East 428 493 35,000  Level Kansas City Center
02:46PM 39.6933 -88.3517 84° East 429 494 35,000  Level Kansas City Center
02:48PM 39.7039 -88.1956 85° East 426 490 35,000  Level Kansas City Center
02:48PM 39.7086 -88.0983 86° East 421 484 35,000  Level Indianapolis Center
02:49PM 39.7194 -87.9486 85° East 419 482 35,000  Level Indianapolis Center
02:50PM 39.7294 -87.7975 85° East 421 484 35,000  Level Indianapolis Center
02:51PM 39.7394 -87.6458 85° East 421 484 35,000  Level Indianapolis Center
02:52PM 39.7492 -87.4953 85° East 421 484 35,000  Level Indianapolis Center
02:53PM 39.7603 -87.3150 85° East 418 481 35,000  Level Indianapolis Center
02:54PM 39.7697 -87.1647 85° East 419 482 35,000  Level Indianapolis Center
02:55PM 39.7789 -87.0142 85° East 420 483 35,000  Level Indianapolis Center
02:56PM 39.7872 -86.8628 86° East 421 484 35,000  Level Indianapolis Center
02:57PM 39.7956 -86.7125 86° East 418 481 35,000  Level Indianapolis Center
02:58PM 39.8042 -86.5608 86° East 419 482 35,000  Level Indianapolis Center
02:59PM 39.8139 -86.4078 85° East 422 486 35,000  Level Indianapolis Center
03:01PM 39.8308 -86.2192 83° East 432 497 35,100  Climbing Indianapolis Center
03:02PM 39.8436 -86.0897 83° East 426 490 35,000 -60 Descending Indianapolis Center
03:03PM 39.8617 -85.9083 83° East 419 482 35,000  Level Indianapolis Center
03:04PM 39.8775 -85.7581 82° East 420 483 35,000  Level Indianapolis Center
03:05PM 39.8922 -85.6083 83° East 419 482 35,000  Level Indianapolis Center
03:06PM 39.9078 -85.4578 82° East 421 484 35,000  Level Indianapolis Center
03:07PM 39.9214 -85.3058 83° East 423 487 35,000  Level Indianapolis Center
03:08PM 39.9361 -85.1544 83° East 423 487 35,000  Level Indianapolis Center
03:09PM 39.9531 -84.9728 83° East 423 487 35,000 -60 Level Indianapolis Center
03:10PM 39.9683 -84.8161 83° East 418 481 34,900 -120 Descending Indianapolis Center
03:11PM 39.9814 -84.6661 83° East 414 476 34,800 -1,800 Descending Indianapolis Center
03:12PM 40.0233 -84.5158 70° East 443 510 31,200 -1,920 Descending Indianapolis Center
03:13PM 40.0675 -84.3550 70° East 468 539 30,900 -120 Descending Indianapolis Center
03:14PM 40.1139 -84.1939 69° East 470 541 31,000  Climbing Indianapolis Center
03:15PM 40.1336 -84.0256 81° East 469 540 31,000  Level Indianapolis Center
03:16PM 40.1283 -83.8533 92° East 469 540 31,000  Level Indianapolis Center
03:17PM 40.1242 -83.6839 92° East 461 531 31,000 -60 Level Indianapolis Center
03:18PM 40.1200 -83.4892 92° East 452 520 30,900 -60 Descending Indianapolis Center
03:19PM 40.1153 -83.3206 92° East 455 524 30,900  Level Indianapolis Center
03:20PM 40.1097 -83.1536 92° East 453 521 30,900  Level Indianapolis Center
03:21PM 40.1044 -82.9878 92° East 451 519 30,900  Level Indianapolis Center
03:22PM 40.0989 -82.8217 92° East 453 521 30,900  Level Indianapolis Center
03:23PM 40.0939 -82.6550 92° East 456 525 31,000  Climbing Indianapolis Center
03:24PM 40.0869 -82.4883 93° East 455 524 31,000  Level Indianapolis Center
03:25PM 40.0814 -82.3219 92° East 455 524 31,000  Level Indianapolis Center
03:26PM 40.0756 -82.1553 93° East 455 524 31,000  Level Indianapolis Center
03:27PM 40.0678 -81.9589 93° East 459 528 31,000 -60 Level Indianapolis Center
03:28PM 40.0606 -81.7919 93° East 458 527 30,900  Descending Indianapolis Center
03:29PM 40.0531 -81.6161 93° East 463 533 31,000  Climbing Indianapolis Center
03:31PM 40.0458 -81.4472 93° East 464 534 31,000  Level Indianapolis Center
03:32PM 40.0372 -81.2778 94° East 465 535 31,000  Level Indianapolis Center
03:33PM 40.0289 -81.1089 94° East 465 535 31,000  Level Indianapolis Center
03:34PM 40.0214 -80.9394 93° East 465 535 31,000  Level Indianapolis Center
03:35PM 40.0075 -80.7717 96° East 462 532 31,000  Level Indianapolis Center
03:36PM 39.9733 -80.5831 103° East 464 534 31,000  Level Cleveland Center
03:37PM 39.9400 -80.4178 105° East 464 534 31,000  Level Cleveland Center
03:38PM 39.9061 -80.2556 105° East 464 534 31,000  Level Cleveland Center
03:39PM 39.8722 -80.0936 105° East 464 534 31,000  Level Cleveland Center
03:40PM 39.8381 -79.9314 105° East 464 534 31,000  Level Cleveland Center
03:41PM 39.8036 -79.7697 105° East 464 534 31,000 -360 Level Cleveland Center
03:42PM 39.7756 -79.6214 104° East 469 540 30,300 -900 Descending Cleveland Center
03:43PM 39.7406 -79.4600 106° East 469 540 29,300 -1,740 Descending Cleveland Center
03:44PM 39.7078 -79.2986 105° East 469 540 26,900 -2,520 Descending Cleveland Center
03:44PM 39.6867 -79.2050 106° East 487 560 25,500 -1,260 Descending Washington Center
03:45PM 39.6556 -79.0525 105° East 478 550 25,000 -900 Descending Washington Center
03:46PM 39.6111 -78.8617 107° East 492 566 23,800 -1,320 Descending Washington Center
03:47PM 39.5569 -78.7003 113° Southeast 492 566 22,500 -900 Descending Washington Center
03:48PM 39.4856 -78.5547 122° Southeast 480 552 22,000 -360 Descending Washington Center
03:49PM 39.4244 -78.4044 118° Southeast 480 552 21,800 -1,980 Descending Washington Center
03:50PM 39.4117 -78.2375 96° East 460 529 18,100 -3,360 Descending Washington Center
03:51PM 39.4006 -78.0758 95° East 454 522 15,000 -1,620 Descending Washington Center
03:52PM 39.3994 -77.9200 90° East 444 511 14,900 -960 Descending Washington Center
03:53PM 39.4106 -77.7672 85° East 429 494 13,100 -1,740 Descending Washington Center
03:54PM 39.4236 -77.6228 83° East 421 484 11,500 -1,080 Descending Washington Center
03:55PM 39.4339 -77.4967 84° East 381 438 11,000 -300 Descending Washington Center
03:56PM 39.4419 -77.3919 84° East 332 382 11,000  Level Washington Center
03:57PM 39.4667 -77.2667 76° East 306 352 11,000 -420 Level Potomac TRACON
03:58PM 39.4667 -77.1500 90° East 306 352 10,100 -1,200 Descending Potomac TRACON
03:59PM 39.4667 -77.0500 90° East 298 343 8,600 -1,500 Descending Potomac TRACON
04:00PM 39.4667 -76.9333 90° East 291 335 7,100 -1,560 Descending Potomac TRACON
04:01PM 39.4167 -76.8667 134° Southeast 285 328 5,700 -1,500 Descending Potomac TRACON
04:02PM 39.3333 -76.8667 180° South 269 310 4,300 -1,320 Descending Potomac TRACON
04:03PM 39.2500 -76.8667 180° South 267 307 3,000 -660 Descending Potomac TRACON
04:04PM 39.1833 -76.8500 169° South 233 268 3,000  Level Potomac TRACON